Terminal Aerodrome Forecast
Issued by NWS

Home | Current Version | Previous Version | Text Only | Print | Product List | Glossary On
Versions: 1 2 3 4 5 6 7 8 9 10 11 12 13 14 15 16 17 18
000
FTUS41 KCAR 251736
TAFFVE
TAF
KFVE 251736Z 2518/2618 21005KT P6SM BKN090
     FM252000 20005KT 6SM TSRA BKN060CB
     FM252100 21006KT 2SM +TSRA BKN020CB
     FM260000 32009KT 3SM TSRA BKN030CB
     FM260200 32008KT P6SM BKN015
     FM261600 34010KT P6SM BKN035=

USA.gov is the U.S. government's official web portal to all federal, state and local government web resources and services.